Hawley, Minnesota
Current Conditions -  °F | °C
As of 7:52 AM on Wednesday 26 Nov 2014 (Local Time) from KJKJ Reporting Station
Haze Haze  
Wind Chill: -19°   Ceiling: 600
Heat Index:   Visibility: 5mi
Dew Point:   Wind: 22mph
Humidity: 85%   Direction: 350°N
Pressure: 30.32"   Gusts: 25mph
Location:  46.88°N, 96.32°W
Report Text: KJKJ 261352Z AUTO 35019G22KT 5SM BR OVC006 M16/M18 A3032 RMK AO2
Loading
Personal Weather Stations






























Interactive Weather Map New forecast layout! Learn more

10-Day Weather Forecast

Advertisements
Track Severe Weather on mobile